Time;durP1;ratioP1;P1;durP2;ratioP2;P2;SDS_P1;SDS_P2;PMS_P1;PMS_P2;Temp;Humidity;BMP_temperature;BMP_pressure;BME280_temperature;BME280_humidity;BME280_pressure;Samples;Min_cycle;Max_cycle;Signal;HPM_P1;HPM_P2
2022/08/17 00:01:55;;;;;;;0.40;0.40;;;21.00;99.90;;;;;;5054381;28;20237;-66
2022/08/17 00:04:43;;;;;;;0.40;0.40;;;21.00;99.90;;;;;;5054536;28;20193;-66
2022/08/17 00:07:37;;;;;;;0.40;0.40;;;20.90;99.90;;;;;;5052536;28;20202;-64
2022/08/17 00:10:26;;;;;;;0.40;0.40;;;21.00;99.90;;;;;;5053307;28;20322;-66
2022/08/17 00:13:16;;;;;;;0.40;0.40;;;20.90;99.90;;;;;;5053687;28;20224;-66
2022/08/17 00:16:07;;;;;;;0.40;0.40;;;20.90;99.90;;;;;;5053109;28;20198;-66
2022/08/17 00:18:55;;;;;;;0.40;0.40;;;20.80;99.90;;;;;;5053205;28;20362;-67
2022/08/17 00:21:58;;;;;;;0.40;0.40;;;20.90;99.90;;;;;;5053413;28;20210;-66
2022/08/17 00:25:10;;;;;;;0.40;0.40;;;20.80;99.90;;;;;;5054004;28;20233;-66
2022/08/17 00:27:58;;;;;;;0.50;0.50;;;20.70;99.90;;;;;;5053429;28;20197;-67
2022/08/17 00:30:50;;;;;;;0.40;0.40;;;20.70;99.90;;;;;;5052953;28;20225;-66
2022/08/17 00:33:44;;;;;;;0.40;0.40;;;20.60;99.90;;;;;;5053285;28;20233;-66
2022/08/17 00:36:32;;;;;;;0.40;0.40;;;20.60;99.90;;;;;;5053099;28;20201;-64
2022/08/17 00:39:20;;;;;;;0.50;0.50;;;20.60;99.90;;;;;;5051691;28;20291;-65
2022/08/17 00:42:13;;;;;;;0.40;0.40;;;20.50;99.90;;;;;;5052634;28;20240;-66
2022/08/17 00:45:03;;;;;;;0.50;0.50;;;20.50;99.90;;;;;;5052358;28;20205;-66
2022/08/17 00:47:51;;;;;;;0.40;0.40;;;20.50;99.90;;;;;;5052484;28;20201;-64
2022/08/17 00:50:53;;;;;;;0.40;0.40;;;20.50;99.90;;;;;;5051556;28;20693;-65
2022/08/17 00:53:44;;;;;;;0.40;0.40;;;20.40;99.90;;;;;;5053055;28;20196;-65
2022/08/17 00:56:38;;;;;;;0.40;0.40;;;20.50;99.90;;;;;;5053521;28;20208;-65
2022/08/17 00:59:30;;;;;;;0.45;0.45;;;20.40;99.90;;;;;;5052400;28;20291;-65
2022/08/17 01:02:19;;;;;;;0.40;0.40;;;20.40;99.90;;;;;;5054154;28;20252;-64
2022/08/17 01:05:09;;;;;;;0.40;0.40;;;20.40;99.90;;;;;;5053173;28;20205;-66
2022/08/17 01:08:01;;;;;;;0.50;0.50;;;20.40;99.90;;;;;;5052588;28;20204;-65
2022/08/17 01:10:52;;;;;;;0.40;0.40;;;20.30;99.90;;;;;;5052765;28;20698;-66
2022/08/17 01:13:47;;;;;;;0.40;0.40;;;20.30;99.90;;;;;;5053310;28;20200;-67
2022/08/17 01:16:37;;;;;;;0.40;0.40;;;20.30;99.90;;;;;;5051438;28;20686;-64
2022/08/17 01:19:27;;;;;;;0.50;0.50;;;20.20;99.90;;;;;;5052158;28;20221;-66
2022/08/17 01:22:19;;;;;;;0.40;0.40;;;20.20;99.90;;;;;;5053217;28;20201;-65
2022/08/17 01:25:09;;;;;;;0.40;0.40;;;20.20;99.90;;;;;;5051668;28;20264;-65
2022/08/17 01:27:57;;;;;;;0.40;0.40;;;20.20;99.90;;;;;;5053082;28;20193;-65
2022/08/17 01:30:46;;;;;;;0.40;0.40;;;20.10;99.90;;;;;;5051825;28;20221;-64
2022/08/17 01:33:46;;;;;;;0.40;0.40;;;20.10;99.90;;;;;;5052425;28;20208;-66
2022/08/17 01:36:35;;;;;;;0.40;0.40;;;20.20;99.90;;;;;;5053059;28;20201;-67
2022/08/17 01:39:30;;;;;;;0.50;0.50;;;20.00;99.90;;;;;;5051447;28;20243;-66
2022/08/17 01:42:23;;;;;;;0.40;0.40;;;20.00;99.90;;;;;;5052911;28;20221;-67
2022/08/17 01:45:15;;;;;;;0.50;0.50;;;20.00;99.90;;;;;;5052741;28;20212;-67
2022/08/17 01:48:04;;;;;;;0.50;0.50;;;20.00;99.90;;;;;;5065701;28;20242;-66
2022/08/17 01:50:52;;;;;;;0.50;0.50;;;20.00;99.90;;;;;;5071009;28;20236;-66
2022/08/17 01:53:44;;;;;;;0.40;0.40;;;20.00;99.90;;;;;;5072424;28;20613;-64
2022/08/17 01:56:36;;;;;;;0.40;0.40;;;20.00;99.90;;;;;;5071743;28;20611;-66
2022/08/17 01:59:24;;;;;;;0.50;0.50;;;20.00;99.90;;;;;;5069981;28;20693;-69
2022/08/17 02:02:12;;;;;;;0.40;0.40;;;19.90;99.90;;;;;;5074217;28;20197;-66
2022/08/17 02:05:19;;;;;;;0.40;0.40;;;19.90;99.90;;;;;;5076067;28;20196;-66
2022/08/17 02:08:07;;;;;;;0.40;0.40;;;19.90;99.90;;;;;;5076104;28;20200;-67
2022/08/17 02:11:10;;;;;;;0.40;0.40;;;19.90;99.90;;;;;;5117460;22;20243;-70
2022/08/17 02:14:01;;;;;;;0.40;0.40;;;19.90;99.90;;;;;;5095537;28;20196;-70
2022/08/17 02:16:51;;;;;;;0.40;0.40;;;19.90;99.90;;;;;;5095837;28;20283;-70
2022/08/17 02:19:39;;;;;;;0.40;0.40;;;19.80;99.90;;;;;;5101532;28;20707;-70
2022/08/17 02:22:28;;;;;;;0.40;0.40;;;19.90;99.90;;;;;;5115630;28;20195;-70
2022/08/17 02:25:20;;;;;;;0.40;0.40;;;19.80;99.90;;;;;;5116279;28;20232;-70
2022/08/17 02:28:08;;;;;;;0.40;0.40;;;19.70;99.90;;;;;;5115683;28;20241;-70
2022/08/17 02:31:02;;;;;;;0.40;0.40;;;19.70;99.90;;;;;;5115759;28;20215;-70
2022/08/17 02:33:51;;;;;;;0.40;0.40;;;19.70;99.90;;;;;;5117072;28;20199;-70
2022/08/17 02:36:52;;;;;;;0.40;0.40;;;19.70;99.90;;;;;;5116115;28;20276;-70
2022/08/17 02:39:40;;;;;;;0.40;0.40;;;19.70;99.90;;;;;;5115798;28;20261;-70
2022/08/17 02:42:32;;;;;;;0.40;0.40;;;19.70;99.90;;;;;;5114849;28;20278;-70
2022/08/17 02:45:22;;;;;;;0.40;0.40;;;19.70;99.90;;;;;;5116574;28;20203;-70
2022/08/17 02:48:12;;;;;;;0.40;0.40;;;19.60;99.90;;;;;;5115938;28;20222;-70
2022/08/17 02:51:01;;;;;;;0.40;0.40;;;19.50;99.90;;;;;;5115515;28;20284;-69
2022/08/17 02:53:50;;;;;;;0.40;0.40;;;19.50;99.90;;;;;;5115614;28;20198;-70
2022/08/17 02:56:38;;;;;;;0.40;0.40;;;19.40;99.90;;;;;;5116005;28;20714;-70
2022/08/17 02:59:27;;;;;;;0.40;0.40;;;19.40;99.90;;;;;;5115268;28;20646;-70
2022/08/17 03:02:15;;;;;;;0.40;0.40;;;19.40;99.90;;;;;;5115840;28;20187;-70
2022/08/17 03:05:05;;;;;;;0.40;0.40;;;19.40;99.90;;;;;;5115979;28;20683;-70
2022/08/17 03:07:55;;;;;;;0.40;0.40;;;19.40;99.90;;;;;;5120902;28;20195;-70
2022/08/17 03:10:44;;;;;;;0.40;0.40;;;19.40;99.90;;;;;;5127040;28;20223;-70
2022/08/17 03:13:32;;;;;;;1.77;1.67;;;19.30;99.90;;;;;;5122818;28;20682;-70
2022/08/17 03:16:21;;;;;;;0.40;0.40;;;19.40;99.90;;;;;;5124315;28;20195;-70
2022/08/17 03:19:09;;;;;;;0.40;0.40;;;19.30;99.90;;;;;;5127349;28;20199;-71
2022/08/17 03:21:59;;;;;;;0.40;0.40;;;19.30;99.90;;;;;;5125574;28;20200;-70
2022/08/17 03:25:10;;;;;;;0.40;0.40;;;19.30;99.90;;;;;;5123767;28;20203;-70
2022/08/17 03:27:58;;;;;;;0.40;0.40;;;19.30;99.90;;;;;;5126726;28;20276;-70
2022/08/17 03:30:46;;;;;;;0.40;0.40;;;19.30;99.90;;;;;;5129044;28;20428;-70
2022/08/17 03:33:35;;;;;;;0.40;0.40;;;19.30;99.90;;;;;;5125359;28;20203;-70
2022/08/17 03:36:23;;;;;;;0.40;0.40;;;19.30;99.90;;;;;;5125983;28;20207;-70
2022/08/17 03:39:12;;;;;;;0.40;0.40;;;19.30;99.90;;;;;;5129908;28;20207;-69
2022/08/17 03:42:06;;;;;;;0.40;0.40;;;19.30;99.90;;;;;;5120584;28;20576;-70
2022/08/17 03:44:56;;;;;;;0.40;0.40;;;19.30;99.90;;;;;;5125102;28;20198;-70
2022/08/17 03:57:10;;;;;;;0.40;0.40;;;19.30;99.90;;;;;;5107021;28;20478;-69
2022/08/17 03:59:59;;;;;;;0.40;0.40;;;19.20;99.90;;;;;;5101523;28;20229;-69
2022/08/17 04:02:47;;;;;;;0.40;0.40;;;19.30;99.90;;;;;;5100440;28;20203;-72
2022/08/17 04:05:35;;;;;;;0.40;0.40;;;19.30;99.90;;;;;;5105293;28;20200;-70
2022/08/17 04:08:23;;;;;;;0.40;0.40;;;19.20;99.90;;;;;;5105146;28;20731;-69
2022/08/17 04:11:12;;;;;;;0.40;0.40;;;19.20;99.90;;;;;;5102743;28;20220;-71
2022/08/17 04:14:02;;;;;;;0.40;0.40;;;19.30;99.90;;;;;;5103389;28;20196;-69
2022/08/17 04:16:50;;;;;;;0.40;0.40;;;19.30;99.90;;;;;;5103618;28;20200;-69
2022/08/17 04:19:38;;;;;;;0.40;0.40;;;19.30;99.90;;;;;;5099552;28;20215;-70
2022/08/17 04:22:27;;;;;;;0.40;0.40;;;19.30;99.90;;;;;;5093199;28;20252;-69
2022/08/17 04:25:20;;;;;;;0.40;0.40;;;19.40;99.90;;;;;;5092214;28;20698;-70
2022/08/17 04:28:09;;;;;;;0.40;0.40;;;19.30;99.90;;;;;;5092653;28;20557;-69
2022/08/17 04:31:04;;;;;;;0.40;0.40;;;19.40;99.90;;;;;;5093511;28;20601;-69
2022/08/17 04:33:54;;;;;;;0.40;0.40;;;19.40;99.90;;;;;;5092681;28;20704;-69
2022/08/17 04:36:42;;;;;;;0.40;0.40;;;;;;;;;;5092959;28;20257;-70
2022/08/17 04:39:37;;;;;;;0.40;0.40;;;19.50;99.90;;;;;;5092573;28;20300;-70
2022/08/17 04:42:24;;;;;;;0.40;0.40;;;19.50;99.90;;;;;;5092872;28;20196;-69
2022/08/17 04:45:12;;;;;;;0.40;0.40;;;19.50;99.90;;;;;;5092178;28;20196;-70
2022/08/17 04:48:03;;;;;;;0.40;0.40;;;19.50;99.90;;;;;;5092344;28;20208;-70
2022/08/17 04:50:51;;;;;;;0.40;0.40;;;19.60;99.90;;;;;;5094076;28;20215;-70
2022/08/17 04:53:40;;;;;;;0.40;0.40;;;19.60;99.90;;;;;;5095063;28;20757;-69
2022/08/17 04:56:29;;;;;;;0.40;0.40;;;19.70;99.90;;;;;;5093787;28;20204;-70
2022/08/17 04:59:20;;;;;;;0.40;0.40;;;19.70;99.90;;;;;;5091858;28;20203;-69
2022/08/17 05:02:08;;;;;;;0.40;0.40;;;19.80;99.90;;;;;;5092715;28;20668;-70
2022/08/17 05:04:58;;;;;;;0.40;0.40;;;19.80;99.90;;;;;;5092329;28;20200;-69
2022/08/17 05:07:46;;;;;;;0.40;0.40;;;19.90;99.90;;;;;;5091937;28;20211;-70
2022/08/17 05:10:37;;;;;;;0.40;0.40;;;20.00;99.90;;;;;;5092112;28;20255;-70
2022/08/17 05:13:32;;;;;;;0.40;0.40;;;20.00;99.90;;;;;;5092170;28;20220;-69
2022/08/17 05:16:21;;;;;;;0.40;0.40;;;20.10;99.90;;;;;;5093884;28;20203;-70
2022/08/17 05:19:09;;;;;;;0.40;0.40;;;20.20;99.90;;;;;;5091627;28;20240;-70
2022/08/17 05:21:58;;;;;;;0.40;0.40;;;20.30;99.90;;;;;;5092228;28;20206;-70
2022/08/17 05:24:47;;;;;;;0.40;0.40;;;20.20;99.90;;;;;;5092875;28;20273;-70
2022/08/17 05:27:40;;;;;;;0.40;0.40;;;20.30;99.90;;;;;;5092601;28;20199;-70
2022/08/17 05:30:30;;;;;;;0.40;0.40;;;20.40;99.90;;;;;;5092465;28;20303;-70
2022/08/17 05:33:21;;;;;;;0.40;0.40;;;20.70;99.90;;;;;;5092665;28;20265;-69
2022/08/17 05:36:12;;;;;;;0.40;0.40;;;20.60;99.90;;;;;;5094721;28;20200;-70
2022/08/17 05:39:21;;;;;;;0.40;0.40;;;20.70;99.90;;;;;;5094904;28;20260;-70
2022/08/17 05:42:09;;;;;;;0.40;0.40;;;20.70;99.90;;;;;;5094677;28;20745;-70
2022/08/17 05:44:58;;;;;;;0.40;0.40;;;20.80;99.90;;;;;;5098853;28;20738;-70
2022/08/17 05:47:47;;;;;;;0.40;0.40;;;20.90;99.90;;;;;;5110687;28;20203;-69
2022/08/17 05:50:48;;;;;;;0.40;0.40;;;21.00;99.90;;;;;;5113271;28;20261;-69
2022/08/17 05:53:44;;;;;;;0.40;0.40;;;21.10;99.90;;;;;;5112999;28;20204;-69
2022/08/17 05:56:52;;;;;;;0.40;0.40;;;21.20;99.90;;;;;;5113682;28;20191;-69
2022/08/17 05:59:52;;;;;;;0.40;0.40;;;21.30;99.90;;;;;;5115177;28;20220;-69
2022/08/17 06:02:53;;;;;;;0.40;0.40;;;21.40;99.90;;;;;;5114106;28;20203;-70
2022/08/17 06:05:53;;;;;;;0.40;0.40;;;21.50;99.90;;;;;;5111216;28;20620;-69
2022/08/17 06:08:49;;;;;;;0.40;0.40;;;21.70;99.90;;;;;;5113956;28;20196;-70
2022/08/17 06:11:46;;;;;;;0.40;0.40;;;21.90;99.90;;;;;;5111942;28;20196;-70
2022/08/17 06:14:53;;;;;;;0.40;0.40;;;22.00;99.90;;;;;;5112760;28;20199;-70
2022/08/17 06:17:43;;;;;;;0.40;0.40;;;22.20;99.90;;;;;;5111884;28;20200;-70
2022/08/17 06:20:42;;;;;;;0.40;0.40;;;22.40;99.90;;;;;;5111651;28;20227;-70
2022/08/17 06:23:35;;;;;;;0.40;0.40;;;22.60;99.90;;;;;;5112224;28;20200;-70
2022/08/17 06:26:27;;;;;;;0.40;0.40;;;22.80;99.90;;;;;;5098397;28;20200;-71
2022/08/17 06:29:38;;;;;;;0.40;0.40;;;23.20;99.90;;;;;;5092365;28;20280;-70
2022/08/17 06:32:26;;;;;;;0.40;0.40;;;23.20;99.90;;;;;;5093289;28;20703;-70
2022/08/17 06:35:18;;;;;;;0.40;0.40;;;23.40;99.90;;;;;;5109808;28;20181;-70
2022/08/17 06:38:14;;;;;;;0.40;0.40;;;23.50;99.90;;;;;;5111535;28;20231;-70
2022/08/17 06:41:30;;;;;;;0.50;0.50;;;23.60;99.90;;;;;;5112321;28;20227;-70
2022/08/17 06:44:23;;;;;;;0.40;0.40;;;23.70;99.90;;;;;;5112928;28;20231;-70
2022/08/17 06:47:36;;;;;;;0.40;0.40;;;23.80;99.90;;;;;;5112214;28;20222;-72
2022/08/17 06:50:31;;;;;;;0.40;0.40;;;24.00;99.90;;;;;;5117437;28;20220;-70
2022/08/17 06:53:24;;;;;;;0.40;0.40;;;24.00;99.90;;;;;;5118507;28;20250;-70
2022/08/17 06:56:21;;;;;;;0.40;0.40;;;24.10;99.90;;;;;;5117963;28;20207;-70
2022/08/17 06:59:14;;;;;;;0.40;0.40;;;24.40;99.90;;;;;;5115226;28;20200;-70
2022/08/17 07:02:06;;;;;;;0.40;0.40;;;24.40;99.90;;;;;;5110793;28;20245;-70
2022/08/17 07:05:00;;;;;;;0.40;0.40;;;24.50;99.90;;;;;;5098050;28;20195;-71
2022/08/17 07:08:03;;;;;;;0.40;0.40;;;24.70;99.90;;;;;;5096545;28;20261;-71
2022/08/17 07:10:55;;;;;;;0.40;0.40;;;24.90;99.90;;;;;;5094518;28;20261;-71
2022/08/17 07:13:50;;;;;;;0.40;0.40;;;25.00;99.90;;;;;;5094516;28;20212;-71
2022/08/17 07:16:42;;;;;;;0.50;0.50;;;25.00;99.90;;;;;;5093904;28;20191;-71
2022/08/17 07:19:34;;;;;;;0.40;0.40;;;25.10;99.90;;;;;;5094301;28;20246;-70
2022/08/17 07:22:32;;;;;;;0.40;0.40;;;25.20;99.90;;;;;;5094892;28;20234;-71
2022/08/17 07:25:40;;;;;;;0.40;0.40;;;25.20;99.90;;;;;;5093682;28;20302;-70
2022/08/17 07:28:31;;;;;;;0.40;0.40;;;25.40;99.90;;;;;;5094176;28;20208;-71
2022/08/17 07:31:19;;;;;;;0.40;0.40;;;25.50;99.90;;;;;;5093487;28;20307;-71
2022/08/17 07:34:13;;;;;;;0.40;0.40;;;25.60;99.90;;;;;;5094172;28;20257;-71
2022/08/17 07:37:04;;;;;;;0.40;0.40;;;25.80;99.90;;;;;;5094768;28;20208;-71
2022/08/17 07:39:54;;;;;;;0.40;0.40;;;26.00;99.90;;;;;;5094446;28;20219;-71
2022/08/17 07:43:22;;;;;;;0.40;0.40;;;26.10;99.90;;;;;;5093196;28;20203;-70
2022/08/17 07:49:33;;;;;;;0.40;0.40;;;26.40;99.90;;;;;;5093821;28;20656;-71
2022/08/17 07:52:31;;;;;;;0.40;0.40;;;26.40;99.90;;;;;;5093108;28;20683;-71
2022/08/17 07:55:40;;;;;;;0.40;0.40;;;26.50;99.90;;;;;;5093379;28;20199;-71
2022/08/17 07:58:28;;;;;;;0.40;0.40;;;26.60;99.90;;;;;;5097368;28;20233;-70
2022/08/17 08:01:17;;;;;;;0.40;0.40;;;26.60;99.90;;;;;;5100900;28;20222;-70
2022/08/17 08:04:28;;;;;;;0.40;0.40;;;26.60;99.90;;;;;;5106609;28;20283;-70
2022/08/17 08:07:41;;;;;;;0.60;0.60;;;26.60;99.90;;;;;;5092567;28;20279;-70
2022/08/17 08:10:34;;;;;;;0.40;0.40;;;26.70;99.90;;;;;;5108913;22;20229;-65
2022/08/17 08:13:26;;;;;;;0.40;0.40;;;26.70;99.90;;;;;;5073338;28;20208;-63
2022/08/17 08:16:24;;;;;;;0.40;0.40;;;26.80;99.90;;;;;;5071915;28;20614;-63
2022/08/17 08:19:15;;;;;;;0.50;0.50;;;26.90;99.90;;;;;;5072507;28;20209;-64
2022/08/17 08:22:12;;;;;;;0.40;0.40;;;27.00;99.90;;;;;;5053233;28;20283;-64
2022/08/17 08:25:13;;;;;;;0.40;0.40;;;27.00;99.90;;;;;;5052810;28;20296;-64
2022/08/17 08:28:14;;;;;;;0.40;0.40;;;27.10;99.90;;;;;;5052316;28;20193;-63
2022/08/17 08:31:09;;;;;;;0.40;0.40;;;27.10;99.90;;;;;;5052164;28;20233;-64
2022/08/17 08:34:08;;;;;;;0.50;0.50;;;27.30;99.90;;;;;;5051594;28;20218;-64
2022/08/17 08:37:34;;;;;;;0.40;0.40;;;27.40;99.90;;;;;;5053490;28;20197;-64
2022/08/17 08:40:50;;;;;;;0.40;0.40;;;27.40;99.90;;;;;;5052024;28;20275;-63
2022/08/17 08:43:47;;;;;;;0.40;0.40;;;27.50;99.90;;;;;;5052220;28;20200;-62
2022/08/17 08:46:50;;;;;;;0.40;0.40;;;27.60;99.90;;;;;;5051493;28;20197;-63
2022/08/17 08:49:55;;;;;;;0.40;0.40;;;27.70;99.90;;;;;;5052048;28;20259;-62
2022/08/17 08:53:13;;;;;;;0.40;0.40;;;27.80;99.90;;;;;;5051848;28;20194;-63
2022/08/17 08:56:06;;;;;;;0.40;0.40;;;27.90;99.90;;;;;;5052026;28;20260;-63
2022/08/17 08:59:02;;;;;;;0.40;0.40;;;27.90;99.90;;;;;;5051986;28;20202;-63
2022/08/17 09:02:02;;;;;;;0.40;0.40;;;27.90;99.90;;;;;;5051828;28;20205;-63
2022/08/17 09:05:06;;;;;;;0.40;0.40;;;28.00;99.90;;;;;;5051915;28;20251;-64
2022/08/17 09:08:10;;;;;;;0.40;0.40;;;28.00;99.90;;;;;;5051925;28;20256;-64
2022/08/17 09:11:04;;;;;;;0.40;0.40;;;28.10;99.90;;;;;;5050875;28;20264;-63
2022/08/17 09:14:01;;;;;;;0.40;0.40;;;28.10;99.90;;;;;;5051602;28;20311;-63
2022/08/17 09:16:57;;;;;;;0.40;0.40;;;28.20;99.90;;;;;;5051447;28;20233;-62
2022/08/17 09:19:51;;;;;;;0.40;0.40;;;28.30;99.60;;;;;;5050742;28;20752;-63
2022/08/17 09:22:43;;;;;;;0.40;0.40;;;28.40;98.80;;;;;;5051305;28;20673;-63
2022/08/17 09:25:34;;;;;;;0.40;0.40;;;28.60;97.40;;;;;;5051422;28;20221;-63
2022/08/17 09:28:30;;;;;;;0.40;0.40;;;28.80;96.60;;;;;;5051305;28;20193;-63
2022/08/17 09:31:22;;;;;;;0.40;0.40;;;29.00;96.60;;;;;;5050915;28;20217;-63
2022/08/17 09:34:17;;;;;;;0.40;0.40;;;29.20;96.10;;;;;;5051357;28;20224;-63
2022/08/17 09:37:17;;;;;;;0.40;0.40;;;29.40;94.80;;;;;;5051755;28;20209;-63
2022/08/17 09:40:13;;;;;;;0.40;0.40;;;29.60;93.90;;;;;;5051334;28;20253;-63
2022/08/17 09:43:09;;;;;;;0.40;0.40;;;29.70;93.00;;;;;;5050954;28;20201;-63
2022/08/17 09:46:02;;;;;;;0.40;0.40;;;29.70;93.10;;;;;;5050860;28;20632;-64
2022/08/17 09:48:56;;;;;;;0.40;0.40;;;29.80;92.90;;;;;;5051154;28;20201;-62
2022/08/17 09:51:51;;;;;;;0.40;0.40;;;30.00;92.60;;;;;;5050685;28;20281;-64
2022/08/17 09:54:41;;;;;;;0.40;0.40;;;30.10;90.90;;;;;;5051090;28;20593;-64
2022/08/17 09:57:54;;;;;;;0.40;0.40;;;30.20;90.90;;;;;;5051198;28;20232;-64
2022/08/17 10:00:52;;;;;;;0.40;0.40;;;30.20;90.90;;;;;;5051372;28;20312;-63
2022/08/17 10:04:07;;;;;;;0.40;0.40;;;30.20;90.40;;;;;;5051542;28;20206;-63
2022/08/17 10:07:02;;;;;;;0.40;0.40;;;30.40;90.40;;;;;;5050941;28;20593;-64
2022/08/17 10:09:59;;;;;;;0.40;0.40;;;30.40;89.50;;;;;;5051037;28;20274;-64
2022/08/17 10:12:55;;;;;;;0.40;0.40;;;30.50;88.30;;;;;;5050922;28;20700;-63
2022/08/17 10:15:51;;;;;;;0.40;0.40;;;30.60;87.90;;;;;;5051084;28;20307;-63
2022/08/17 10:18:51;;;;;;;0.40;0.40;;;30.70;87.70;;;;;;5051521;28;20281;-63
2022/08/17 10:28:46;;;;;;;0.40;0.40;;;30.90;86.20;;;;;;5055407;28;20201;-64
2022/08/17 10:31:40;;;;;;;0.40;0.40;;;31.00;85.10;;;;;;5054257;28;20230;-63
2022/08/17 10:34:49;;;;;;;0.40;0.40;;;31.10;84.60;;;;;;5055097;28;20201;-64
2022/08/17 10:37:55;;;;;;;0.40;0.40;;;31.40;81.80;;;;;;5054543;28;20207;-64
2022/08/17 10:40:50;;;;;;;0.40;0.40;;;31.60;82.40;;;;;;5053657;28;20701;-64
2022/08/17 10:43:46;;;;;;;0.40;0.40;;;31.80;82.50;;;;;;5054069;28;20721;-63
2022/08/17 10:47:06;;;;;;;0.75;0.75;;;32.00;81.20;;;;;;5055577;28;20206;-64
2022/08/17 10:49:54;;;;;;;0.40;0.40;;;32.10;78.30;;;;;;5054148;28;20275;-64
2022/08/17 10:52:48;;;;;;;0.40;0.40;;;32.00;78.90;;;;;;5054924;28;20626;-63
2022/08/17 10:55:40;;;;;;;0.40;0.40;;;31.90;77.30;;;;;;5054268;28;20570;-64
2022/08/17 10:58:44;;;;;;;0.40;0.40;;;31.60;76.80;;;;;;5054664;28;20670;-64
2022/08/17 11:01:59;;;;;;;0.40;0.40;;;31.50;77.80;;;;;;5053604;28;20272;-64
2022/08/17 11:05:00;;;;;;;0.40;0.40;;;31.60;77.60;;;;;;5054484;28;20197;-64
2022/08/17 11:08:06;;;;;;;0.40;0.40;;;31.60;77.20;;;;;;5053536;28;20197;-63
2022/08/17 11:11:11;;;;;;;0.40;0.40;;;31.60;77.20;;;;;;5054162;28;20232;-63
2022/08/17 11:14:12;;;;;;;0.50;0.50;;;31.70;76.60;;;;;;5053673;28;20197;-64
2022/08/17 11:17:17;;;;;;;0.40;0.40;;;31.80;76.60;;;;;;5052953;28;20275;-64
2022/08/17 11:20:20;;;;;;;0.50;0.50;;;31.90;75.90;;;;;;5053489;28;20304;-64
2022/08/17 11:23:29;;;;;;;0.40;0.40;;;31.90;75.60;;;;;;5053340;28;20411;-64
2022/08/17 11:26:28;;;;;;;0.40;0.40;;;32.00;76.10;;;;;;5053792;28;20207;-63
2022/08/17 11:29:22;;;;;;;0.50;0.50;;;32.00;75.70;;;;;;5053297;28;20201;-64
2022/08/17 11:32:29;;;;;;;0.40;0.40;;;32.20;75.40;;;;;;5053719;28;20283;-64
2022/08/17 11:35:33;;;;;;;0.40;0.40;;;32.40;75.00;;;;;;5054102;28;20209;-66
2022/08/17 11:38:30;;;;;;;0.40;0.40;;;32.50;74.80;;;;;;5053374;28;20736;-63
2022/08/17 11:41:26;;;;;;;0.40;0.40;;;32.50;72.90;;;;;;5053784;28;20221;-64
2022/08/17 11:44:42;;;;;;;0.40;0.40;;;32.50;73.40;;;;;;5053545;28;20248;-64
2022/08/17 11:54:36;;;;;;;1.05;1.05;;;32.30;74.10;;;;;;5053914;28;20202;-64
2022/08/17 11:58:04;;;;;;;5.13;4.68;;;32.20;71.70;;;;;;5054305;28;20220;-64
2022/08/17 12:00:57;;;;;;;0.40;0.40;;;32.20;71.70;;;;;;5053062;28;20251;-63
2022/08/17 12:03:52;;;;;;;0.40;0.40;;;32.30;71.20;;;;;;5052933;28;20295;-64
2022/08/17 12:06:48;;;;;;;0.40;0.40;;;32.50;70.90;;;;;;5053438;28;20204;-63
2022/08/17 12:09:40;;;;;;;0.60;0.60;;;32.60;71.60;;;;;;5053387;28;20758;-65
2022/08/17 12:12:34;;;;;;;0.40;0.40;;;32.50;70.00;;;;;;5052574;28;20213;-64
2022/08/17 12:15:34;;;;;;;0.40;0.40;;;32.60;69.90;;;;;;5052636;28;20426;-64
2022/08/17 12:18:27;;;;;;;0.40;0.40;;;32.70;70.40;;;;;;5053011;28;20641;-64
2022/08/17 12:21:36;;;;;;;0.40;0.40;;;32.80;70.40;;;;;;5052331;28;20698;-65
2022/08/17 12:24:35;;;;;;;0.40;0.40;;;32.90;70.70;;;;;;5053030;28;20205;-64
2022/08/17 12:27:27;;;;;;;0.40;0.40;;;33.20;69.90;;;;;;5052270;28;20243;-64
2022/08/17 12:30:37;;;;;;;0.40;0.40;;;33.40;68.60;;;;;;5052594;28;20312;-64
2022/08/17 12:33:27;;;;;;;0.40;0.40;;;33.70;68.70;;;;;;5052567;28;20233;-64
2022/08/17 12:36:20;;;;;;;0.40;0.40;;;34.10;68.60;;;;;;5052261;28;20291;-65
2022/08/17 12:39:09;;;;;;;0.40;0.40;;;34.30;65.90;;;;;;5052348;28;20202;-65
2022/08/17 12:42:21;;;;;;;0.40;0.40;;;34.60;65.50;;;;;;5052745;28;20206;-64
2022/08/17 12:45:22;;;;;;;0.40;0.40;;;34.70;64.30;;;;;;5051295;28;20305;-64
2022/08/17 12:48:13;;;;;;;0.40;0.40;;;34.70;63.30;;;;;;5052120;28;20201;-64
2022/08/17 12:51:06;;;;;;;0.40;0.40;;;34.60;64.10;;;;;;5050896;28;20268;-64
2022/08/17 12:53:55;;;;;;;0.40;0.40;;;34.60;64.10;;;;;;5052319;28;20202;-64
2022/08/17 12:56:45;;;;;;;0.40;0.40;;;34.60;64.10;;;;;;5052038;28;20526;-65
2022/08/17 12:59:39;;;;;;;0.40;0.40;;;34.70;63.60;;;;;;5051839;28;20201;-64
2022/08/17 13:02:38;;;;;;;0.40;0.40;;;34.60;63.70;;;;;;5051887;28;20201;-64
2022/08/17 13:05:29;;;;;;;0.40;0.40;;;34.70;63.30;;;;;;5051921;28;20205;-65
2022/08/17 13:08:22;;;;;;;0.40;0.40;;;34.60;62.60;;;;;;5052707;28;20205;-65
2022/08/17 13:11:23;;;;;;;0.40;0.40;;;35.00;61.30;;;;;;5052748;28;20279;-65
2022/08/17 13:14:11;;;;;;;0.50;0.50;;;35.10;62.00;;;;;;5052764;28;20292;-65
2022/08/17 13:17:03;;;;;;;0.40;0.40;;;34.90;61.00;;;;;;5051353;28;20225;-65
2022/08/17 13:19:58;;;;;;;0.40;0.40;;;34.40;61.50;;;;;;5050954;28;20263;-65
2022/08/17 13:22:53;;;;;;;0.40;0.40;;;34.30;61.40;;;;;;5052100;28;20204;-65
2022/08/17 13:25:52;;;;;;;0.40;0.40;;;34.20;61.40;;;;;;5052021;28;20247;-65
2022/08/17 13:28:47;;;;;;;0.40;0.40;;;34.40;61.40;;;;;;5051134;28;20272;-66
2022/08/17 13:31:39;;;;;;;0.43;0.43;;;34.60;61.90;;;;;;5052694;28;20352;-65
2022/08/17 13:34:46;;;;;;;0.40;0.40;;;35.50;60.30;;;;;;5052105;28;20212;-65
2022/08/17 13:38:01;;;;;;;0.40;0.40;;;36.60;59.20;;;;;;5051730;28;20601;-66
2022/08/17 13:40:52;;;;;;;0.50;0.50;;;37.10;57.50;;;;;;5052035;28;20282;-65
2022/08/17 13:43:44;;;;;;;0.50;0.50;;;36.80;56.70;;;;;;5050862;28;20208;-66
2022/08/17 13:46:33;;;;;;;0.50;0.50;;;36.30;56.90;;;;;;5051499;28;20575;-65
2022/08/17 13:49:21;;;;;;;0.50;0.50;;;36.30;58.30;;;;;;5050856;28;20291;-64
2022/08/17 13:52:32;;;;;;;0.40;0.40;;;37.30;57.90;;;;;;5052132;28;20201;-66
2022/08/17 13:55:22;;;;;;;0.40;0.40;;;38.00;56.50;;;;;;5051686;28;20298;-66
2022/08/17 13:58:11;;;;;;;0.40;0.40;;;38.00;55.90;;;;;;5054600;28;20311;-65
2022/08/17 14:01:27;;;;;;;0.40;0.40;;;38.60;54.50;;;;;;5055033;28;20224;-64
2022/08/17 14:04:19;;;;;;;0.40;0.40;;;38.90;53.00;;;;;;5055457;28;20203;-65
2022/08/17 14:07:26;;;;;;;0.40;0.40;;;39.00;52.70;;;;;;5055052;28;20251;-64
2022/08/17 14:10:17;;;;;;;0.40;0.40;;;39.00;52.50;;;;;;5054803;28;20236;-64
2022/08/17 14:13:07;;;;;;;0.40;0.40;;;39.40;52.70;;;;;;5055495;28;20228;-65
2022/08/17 14:15:56;;;;;;;0.47;0.47;;;40.60;50.10;;;;;;5054925;28;20225;-65
2022/08/17 14:18:44;;;;;;;0.40;0.40;;;41.00;48.50;;;;;;5054639;28;20255;-65
2022/08/17 14:21:45;;;;;;;0.40;0.40;;;41.10;48.90;;;;;;5054681;28;20221;-65
2022/08/17 14:24:39;;;;;;;0.50;0.50;;;40.60;48.40;;;;;;5054989;28;20201;-64
2022/08/17 14:27:32;;;;;;;0.40;0.40;;;40.00;48.80;;;;;;5053665;28;20697;-64
2022/08/17 14:30:41;;;;;;;0.40;0.40;;;38.70;50.70;;;;;;5054914;28;20228;-65
2022/08/17 14:33:30;;;;;;;0.50;0.50;;;38.50;50.60;;;;;;5055140;28;20209;-65
2022/08/17 14:36:18;;;;;;;0.40;0.40;;;38.70;51.00;;;;;;5054691;28;20198;-65
2022/08/17 14:39:06;;;;;;;0.40;0.40;;;38.90;51.20;;;;;;5054583;28;20237;-65
2022/08/17 14:41:56;;;;;;;0.50;0.50;;;39.30;51.20;;;;;;5054325;28;20208;-64
2022/08/17 14:44:44;;;;;;;0.40;0.40;;;40.20;49.50;;;;;;5054646;28;20417;-64
2022/08/17 14:47:33;;;;;;;0.50;0.50;;;40.60;48.30;;;;;;5054590;28;20198;-64
2022/08/17 14:50:22;;;;;;;0.40;0.40;;;40.00;48.00;;;;;;5054057;28;20213;-65
2022/08/17 14:53:14;;;;;;;0.40;0.40;;;39.40;49.30;;;;;;5054392;28;20197;-64
2022/08/17 14:56:02;;;;;;;0.40;0.40;;;39.00;49.40;;;;;;5054115;28;20294;-65
2022/08/17 14:58:51;;;;;;;0.40;0.40;;;39.10;49.90;;;;;;5054101;28;20244;-65
2022/08/17 15:01:39;;;;;;;1.40;1.30;;;39.40;49.20;;;;;;5054185;28;20237;-65
2022/08/17 15:04:27;;;;;;;0.40;0.40;;;40.30;49.10;;;;;;5053516;28;20212;-65
2022/08/17 15:07:19;;;;;;;0.50;0.50;;;40.20;47.60;;;;;;5053392;28;20193;-64
2022/08/17 15:10:14;;;;;;;0.40;0.40;;;39.10;47.60;;;;;;5053886;28;20644;-65
2022/08/17 15:13:02;;;;;;;0.40;0.40;;;38.20;49.10;;;;;;5054455;28;20208;-65
2022/08/17 15:15:50;;;;;;;0.50;0.50;;;37.40;50.00;;;;;;5053802;28;20198;-64
2022/08/17 15:18:39;;;;;;;0.40;0.40;;;36.80;50.70;;;;;;5054236;28;20229;-64
2022/08/17 15:21:27;;;;;;;0.40;0.40;;;36.50;52.00;;;;;;5053531;28;20232;-64
2022/08/17 15:24:17;;;;;;;0.40;0.40;;;36.30;53.40;;;;;;5053659;28;20205;-64
2022/08/17 15:27:05;;;;;;;0.60;0.60;;;36.10;53.60;;;;;;5052761;28;20193;-65
2022/08/17 15:29:53;;;;;;;0.40;0.40;;;35.90;51.70;;;;;;5052502;28;20221;-64
2022/08/17 15:32:42;;;;;;;0.50;0.50;;;35.90;52.40;;;;;;5053444;28;20204;-65
2022/08/17 15:35:41;;;;;;;0.50;0.50;;;36.10;52.50;;;;;;5052709;28;20685;-64
2022/08/17 15:38:37;;;;;;;0.50;0.50;;;36.00;52.60;;;;;;5053195;28;20697;-64